Time;durP1;ratioP1;P1;durP2;ratioP2;P2;SDS_P1;SDS_P2;PMS_P1;PMS_P2;Temp;Humidity;BMP_temperature;BMP_pressure;BME280_temperature;BME280_humidity;BME280_pressure;Samples;Min_cycle;Max_cycle;Signal;HPM_P1;HPM_P2
2023/05/24 00:00:45;;;;;;;;;;;;;;;8.64;77.23;101962.69;5086072;28;19971;-72
2023/05/24 00:03:11;;;;;;;;;;;;;;;8.63;79.03;101963.75;5070966;28;19938;-74
2023/05/24 00:05:39;;;;;;;;;;;;;;;8.65;79.22;101969.66;5069511;28;19951;-73
2023/05/24 00:08:05;;;;;;;;;;;;;;;8.68;79.45;101964.69;5062920;28;19937;-72
2023/05/24 00:10:30;;;;;;;;;;;;;;;8.67;80.28;101959.56;5065970;28;20461;-72
2023/05/24 00:12:56;;;;;;;;;;;;;;;8.65;80.89;101964.31;5085065;28;19947;-72
2023/05/24 00:15:22;;;;;;;;;;;;;;;8.62;79.83;101951.44;5071602;28;19940;-72
2023/05/24 00:17:48;;;;;;;;;;;;;;;8.57;80.22;101951.28;5082502;28;19981;-71
2023/05/24 00:20:13;;;;;;;;;;;;;;;8.55;79.88;101958.72;5061861;28;19941;-73
2023/05/24 00:22:40;;;;;;;;;;;;;;;8.50;80.94;101950.56;5053956;28;20476;-74
2023/05/24 00:25:06;;;;;;;;;;;;;;;8.47;81.72;101951.84;5089726;28;20049;-70
2023/05/24 00:27:32;;;;;;;;;;;;;;;8.43;81.92;101950.66;5064562;28;20044;-73
2023/05/24 00:29:58;;;;;;;;;;;;;;;8.35;82.92;101943.78;5068061;28;20397;-71
2023/05/24 00:32:24;;;;;;;;;;;;;;;8.35;83.38;101943.78;5069740;28;19976;-71
2023/05/24 00:34:52;;;;;;;;;;;;;;;8.39;82.34;101944.94;5068644;28;19939;-73
2023/05/24 00:37:17;;;;;;;;;;;;;;;8.42;83.71;101949.84;5066231;28;19970;-73
2023/05/24 00:39:43;;;;;;;;;;;;;;;8.37;83.89;101944.38;5049465;28;19940;-71
2023/05/24 00:42:09;;;;;;;;;;;;;;;8.36;83.70;101948.06;5047332;28;20039;-74
2023/05/24 00:44:34;;;;;;;;;;;;;;;8.32;83.96;101944.19;5051168;28;20003;-74
2023/05/24 00:47:00;;;;;;;;;;;;;;;8.34;82.73;101936.78;5054177;28;20884;-74
2023/05/24 00:49:28;;;;;;;;;;;;;;;8.41;82.70;101936.72;5051780;28;21404;-72
2023/05/24 00:51:53;;;;;;;;;;;;;;;8.51;81.25;101936.19;5039457;28;20463;-74
2023/05/24 00:54:19;;;;;;;;;;;;;;;8.59;79.51;101933.19;5084486;28;20025;-74
2023/05/24 00:56:45;;;;;;;;;;;;;;;8.67;78.63;101927.50;5050482;28;19956;-72
2023/05/24 00:59:10;;;;;;;;;;;;;;;8.75;78.56;101911.19;5063375;28;19938;-72
2023/05/24 01:01:37;;;;;;;;;;;;;;;8.77;78.42;101919.78;5056340;28;19985;-71
2023/05/24 01:04:02;;;;;;;;;;;;;;;8.88;76.45;101921.66;5088765;28;19945;-72
2023/05/24 01:06:31;;;;;;;;;;;;;;;8.88;77.89;101927.03;5049912;28;19950;-74
2023/05/24 01:09:06;;;;;;;;;;;;;;;8.93;79.28;101924.44;5081962;28;20499;-72
2023/05/24 01:11:44;;;;;;;;;;;;;;;8.92;78.69;101917.47;5041657;28;19943;-72
2023/05/24 01:14:13;;;;;;;;;;;;;;;8.96;78.43;101909.84;5062812;28;19934;-72
2023/05/24 01:16:50;;;;;;;;;;;;;;;8.94;78.65;101912.75;5053440;28;19961;-69
2023/05/24 01:19:31;;;;;;;;;;;;;;;8.94;78.77;101909.22;5051652;28;20088;-71
2023/05/24 01:22:05;;;;;;;;;;;;;;;8.90;79.20;101908.06;5055349;28;19935;-71
2023/05/24 01:24:52;;;;;;;;;;;;;;;8.83;79.28;101907.38;5068463;28;19954;-71
2023/05/24 01:27:19;;;;;;;;;;;;;;;8.80;80.88;101903.28;5050712;28;19950;-71
2023/05/24 01:29:51;;;;;;;;;;;;;;;8.75;80.97;101905.84;5068111;28;19942;-70
2023/05/24 01:32:20;;;;;;;;;;;;;;;8.79;79.48;101904.31;5083394;28;19943;-72
2023/05/24 01:34:46;;;;;;;;;;;;;;;8.79;79.00;101912.34;5067704;28;19973;-72
2023/05/24 01:37:14;;;;;;;;;;;;;;;8.78;79.79;101900.03;5087102;28;19992;-72
2023/05/24 01:39:41;;;;;;;;;;;;;;;8.82;79.38;101903.06;5064866;28;20634;-71
2023/05/24 01:42:13;;;;;;;;;;;;;;;8.83;79.33;101910.03;5051258;28;19932;-70
2023/05/24 01:44:43;;;;;;;;;;;;;;;8.91;78.82;101909.69;5082475;28;20692;-71
2023/05/24 01:47:30;;;;;;;;;;;;;;;8.94;79.01;101910.06;5032998;28;19970;-71
2023/05/24 01:50:00;;;;;;;;;;;;;;;8.92;78.89;101909.47;5035075;28;19945;-71
2023/05/24 01:52:30;;;;;;;;;;;;;;;8.94;78.80;101906.56;5080598;28;19979;-70
2023/05/24 01:54:56;;;;;;;;;;;;;;;9.05;77.07;101907.63;5040493;28;19931;-72
2023/05/24 01:57:23;;;;;;;;;;;;;;;9.04;78.94;101901.47;5079810;28;19956;-72
2023/05/24 01:59:49;;;;;;;;;;;;;;;8.94;78.94;101910.06;5068052;28;19941;-72
2023/05/24 02:02:15;;;;;;;;;;;;;;;8.98;78.83;101908.56;5034316;28;19934;-70
2023/05/24 02:04:41;;;;;;;;;;;;;;;9.02;79.20;101909.72;5029592;28;20442;-72
2023/05/24 02:07:06;;;;;;;;;;;;;;;8.95;79.98;101906.34;5071261;28;19999;-71
2023/05/24 02:09:34;;;;;;;;;;;;;;;8.91;79.74;101909.69;5064170;28;20595;-72
2023/05/24 02:12:01;;;;;;;;;;;;;;;8.91;79.83;101913.19;5053476;28;20023;-72
2023/05/24 02:14:26;;;;;;;;;;;;;;;8.87;81.27;101912.00;5045559;28;20024;-72
2023/05/24 02:16:57;;;;;;;;;;;;;;;8.85;80.63;101908.75;5069236;28;20474;-71
2023/05/24 02:19:23;;;;;;;;;;;;;;;8.83;82.12;101913.53;5065085;28;19939;-73
2023/05/24 02:21:50;;;;;;;;;;;;;;;8.80;81.92;101913.97;5068090;28;19937;-72
2023/05/24 02:24:17;;;;;;;;;;;;;;;8.78;80.96;101913.38;5037763;28;19940;-72
2023/05/24 02:26:43;;;;;;;;;;;;;;;8.79;81.52;101909.66;5050748;28;19997;-71
2023/05/24 02:29:08;;;;;;;;;;;;;;;8.75;80.60;101913.84;5080260;28;19942;-70
2023/05/24 02:31:34;;;;;;;;;;;;;;;8.74;82.97;101917.59;5065128;28;19931;-73
2023/05/24 02:34:00;;;;;;;;;;;;;;;8.77;82.47;101919.78;5068243;28;20467;-72
2023/05/24 02:36:26;;;;;;;;;;;;;;;8.74;81.68;101910.38;5043909;28;19950;-71
2023/05/24 02:38:51;;;;;;;;;;;;;;;8.75;82.87;101909.34;5064269;28;19943;-71
2023/05/24 02:41:17;;;;;;;;;;;;;;;8.77;82.49;101909.09;5082149;28;20774;-71
2023/05/24 02:43:44;;;;;;;;;;;;;;;8.81;81.56;101914.81;5065183;28;20094;-71
2023/05/24 02:46:12;;;;;;;;;;;;;;;8.80;81.66;101911.28;5051887;28;20454;-71
2023/05/24 02:48:37;;;;;;;;;;;;;;;8.80;82.33;101913.16;5047505;28;19992;-73
2023/05/24 02:51:03;;;;;;;;;;;;;;;8.77;83.45;101903.75;5063440;28;19936;-70
2023/05/24 02:53:30;;;;;;;;;;;;;;;8.77;81.81;101909.09;5082572;28;20296;-71
2023/05/24 02:55:55;;;;;;;;;;;;;;;8.72;83.04;101900.94;5040158;28;20359;-71
2023/05/24 02:58:21;;;;;;;;;;;;;;;8.77;83.21;101909.09;5073222;28;19957;-72
2023/05/24 03:00:49;;;;;;;;;;;;;;;8.79;83.76;101906.19;5051692;28;21580;-73
2023/05/24 03:03:15;;;;;;;;;;;;;;;8.80;83.20;101908.63;5069112;28;19936;-70
2023/05/24 03:05:41;;;;;;;;;;;;;;;8.80;83.09;101903.28;5050128;28;19954;-71
2023/05/24 03:08:08;;;;;;;;;;;;;;;8.79;82.35;101900.84;5065133;28;20413;-73
2023/05/24 03:10:34;;;;;;;;;;;;;;;8.83;84.14;101900.16;5064457;28;19931;-73
2023/05/24 03:12:59;;;;;;;;;;;;;;;8.83;82.65;101896.69;5056257;28;19985;-73
2023/05/24 03:15:26;;;;;;;;;;;;;;;8.79;83.38;101899.00;5065802;28;20030;-73
2023/05/24 03:17:52;;;;;;;;;;;;;;;8.84;82.03;101899.13;5061433;28;20438;-74
2023/05/24 03:20:19;;;;;;;;;;;;;;;8.79;82.35;101890.97;5052388;28;20353;-72
2023/05/24 03:22:45;;;;;;;;;;;;;;;8.85;82.53;101890.06;5072883;28;20476;-73
2023/05/24 03:25:10;;;;;;;;;;;;;;;8.80;84.07;101891.78;5052100;28;19934;-71
2023/05/24 03:27:37;;;;;;;;;;;;;;;8.82;nan;101895.06;5050635;28;19970;-71
2023/05/24 03:30:05;;;;;;;;;;;;;;;8.85;82.11;101890.06;5057810;28;19993;-72
2023/05/24 03:32:35;;;;;;;;;;;;;;;8.87;81.77;101885.28;5066066;28;19950;-71
2023/05/24 03:35:01;;;;;;;;;;;;;;;8.88;82.42;101891.47;5073665;28;19936;-73
2023/05/24 03:37:27;;;;;;;;;;;;;;;8.85;82.70;101892.72;5055975;28;20474;-72
2023/05/24 03:39:53;;;;;;;;;;;;;;;8.86;83.19;101899.69;5071322;28;19968;-73
2023/05/24 03:42:29;;;;;;;;;;;;;;;8.90;83.66;101897.41;5045664;28;19935;-73
2023/05/24 03:44:55;;;;;;;;;;;;;;;8.87;83.09;101897.84;5061281;28;20334;-74
2023/05/24 03:47:21;;;;;;;;;;;;;;;8.88;84.25;101892.28;5070099;28;19979;-74
2023/05/24 03:49:46;;;;;;;;;;;;;;;8.88;81.58;101905.66;5087169;28;19936;-71
2023/05/24 03:52:12;;;;;;;;;;;;;;;8.87;82.47;101898.66;5087469;28;19934;-72
2023/05/24 03:54:37;;;;;;;;;;;;;;;8.86;82.54;101906.91;5067027;28;19934;-73
2023/05/24 03:57:04;;;;;;;;;;;;;;;8.87;82.08;101906.66;5066903;28;19959;-71
2023/05/24 03:59:29;;;;;;;;;;;;;;;8.86;81.80;101902.38;5070570;28;21024;-72
2023/05/24 04:01:55;;;;;;;;;;;;;;;8.89;82.22;101909.13;5079523;28;20062;-72
2023/05/24 04:04:21;;;;;;;;;;;;;;;8.89;82.51;101903.78;5038623;28;19935;-70
2023/05/24 04:06:48;;;;;;;;;;;;;;;8.92;82.66;101912.13;5070780;28;20069;-73
2023/05/24 04:09:16;;;;;;;;;;;;;;;8.89;82.71;101906.47;5052257;28;19937;-73
2023/05/24 04:11:42;;;;;;;;;;;;;;;8.92;83.52;101906.78;5064647;28;19942;-71
2023/05/24 04:14:10;;;;;;;;;;;;;;;8.94;83.66;101912.75;5069908;28;20064;-71
2023/05/24 04:16:40;;;;;;;;;;;;;;;8.92;83.33;101909.47;5052714;28;19958;-72
2023/05/24 04:19:06;;;;;;;;;;;;;;;8.94;84.10;101909.22;5068525;28;19974;-71
2023/05/24 04:21:32;;;;;;;;;;;;;;;8.97;85.16;101920.28;5052703;28;20021;-73
2023/05/24 04:24:00;;;;;;;;;;;;;;;8.96;85.22;101918.66;5068039;28;19931;-71
2023/05/24 04:26:26;;;;;;;;;;;;;;;8.96;86.49;101918.66;5071987;28;20028;-74
2023/05/24 04:28:52;;;;;;;;;;;;;;;8.91;86.39;101917.72;5064250;28;20354;-72
2023/05/24 04:31:19;;;;;;;;;;;;;;;8.86;87.80;101907.72;5052991;28;19942;-72
2023/05/24 04:33:44;;;;;;;;;;;;;;;8.85;87.93;101916.78;5078632;28;19938;-73
2023/05/24 04:36:10;;;;;;;;;;;;;;;8.86;87.52;101921.06;5051325;28;20501;-74
2023/05/24 04:38:37;;;;;;;;;;;;;;;8.87;87.56;101914.69;5052965;28;20446;-72
2023/05/24 04:41:03;;;;;;;;;;;;;;;8.96;87.96;101921.34;5071769;28;19933;-70
2023/05/24 04:43:29;;;;;;;;;;;;;;;8.91;87.42;101926.53;5055189;28;19933;-72
2023/05/24 04:45:55;;;;;;;;;;;;;;;8.92;88.35;101928.16;5066621;28;19962;-74
2023/05/24 04:48:22;;;;;;;;;;;;;;;8.91;88.09;101926.53;5057803;28;19937;-73
2023/05/24 04:50:52;;;;;;;;;;;;;;;8.93;88.19;101929.78;5050343;28;20193;-69
2023/05/24 04:53:18;;;;;;;;;;;;;;;8.96;87.92;101933.88;5055323;28;19929;-71
2023/05/24 04:55:43;;;;;;;;;;;;;;;8.91;88.72;101937.22;5056301;28;19945;-72
2023/05/24 04:58:09;;;;;;;;;;;;;;;8.87;88.65;101940.59;5066676;28;20420;-72
2023/05/24 05:00:34;;;;;;;;;;;;;;;8.92;89.13;101946.88;5052700;28;19954;-71
2023/05/24 05:03:00;;;;;;;;;;;;;;;8.87;88.48;101941.38;5065555;28;19934;-71
2023/05/24 05:05:26;;;;;;;;;;;;;;;8.97;88.63;101952.34;5061216;28;19966;-71
2023/05/24 05:07:51;;;;;;;;;;;;;;;9.00;88.67;101943.03;5081718;28;19931;-72
2023/05/24 05:10:17;;;;;;;;;;;;;;;9.02;89.01;101954.34;5063337;28;19933;-76
2023/05/24 05:12:43;;;;;;;;;;;;;;;8.98;88.95;101948.63;5033375;28;20418;-73
2023/05/24 05:15:09;;;;;;;;;;;;;;;9.13;89.59;101956.19;5081546;28;20064;-72
2023/05/24 05:17:34;;;;;;;;;;;;;;;9.12;88.70;101959.13;5069970;28;20453;-72
2023/05/24 05:20:00;;;;;;;;;;;;;;;9.12;89.62;101962.59;5050370;28;19942;-72
2023/05/24 05:22:25;;;;;;;;;;;;;;;9.22;88.88;101962.84;5067382;28;20624;-72
2023/05/24 05:24:51;;;;;;;;;;;;;;;9.08;88.23;101963.28;5089262;28;19951;-71
2023/05/24 05:27:17;;;;;;;;;;;;;;;9.12;88.24;101959.13;5084499;28;20354;-74
2023/05/24 05:29:43;;;;;;;;;;;;;;;9.24;88.54;101960.75;5060870;28;20325;-73
2023/05/24 05:32:08;;;;;;;;;;;;;;;9.20;88.39;101966.78;5083491;28;19932;-73
2023/05/24 05:34:34;;;;;;;;;;;;;;;9.24;88.50;101967.97;5081797;28;19988;-72
2023/05/24 05:36:59;;;;;;;;;;;;;;;9.31;88.32;101957.97;5085187;28;20041;-73
2023/05/24 05:39:25;;;;;;;;;;;;;;;9.38;88.14;101955.19;5047274;28;19940;-71
2023/05/24 05:41:51;;;;;;;;;;;;;;;9.42;88.36;101959.03;5082194;28;20718;-72
2023/05/24 05:44:19;;;;;;;;;;;;;;;9.45;88.64;101963.91;5088578;28;19971;-71
2023/05/24 05:46:45;;;;;;;;;;;;;;;9.43;88.34;101969.50;5059088;28;19947;-73
2023/05/24 05:49:11;;;;;;;;;;;;;;;9.44;88.19;101964.97;5069700;28;19937;-73
2023/05/24 05:51:39;;;;;;;;;;;;;;;9.50;88.00;101962.19;5033568;28;19933;-73
2023/05/24 05:54:05;;;;;;;;;;;;;;;9.53;87.89;101966.25;5076161;28;20407;-74
2023/05/24 05:56:31;;;;;;;;;;;;;;;9.64;87.40;101962.75;5081380;28;19953;-72
2023/05/24 05:58:56;;;;;;;;;;;;;;;9.78;88.18;101974.84;5066656;28;19932;-73
2023/05/24 06:01:22;;;;;;;;;;;;;;;9.68;86.87;101979.94;5076046;28;19932;-74
2023/05/24 06:03:47;;;;;;;;;;;;;;;9.74;86.82;101984.38;5066359;28;20035;-74
2023/05/24 06:06:16;;;;;;;;;;;;;;;9.82;86.90;101983.19;5063333;28;20005;-73
2023/05/24 06:08:41;;;;;;;;;;;;;;;9.78;87.65;101980.19;5062994;28;19934;-69
2023/05/24 06:11:06;;;;;;;;;;;;;;;9.89;87.89;101993.78;5052688;28;19950;-72
2023/05/24 06:13:32;;;;;;;;;;;;;;;9.85;87.80;101990.78;5076698;28;20025;-71
2023/05/24 06:15:58;;;;;;;;;;;;;;;9.85;87.38;101990.78;5050696;28;20380;-74
2023/05/24 06:18:26;;;;;;;;;;;;;;;9.88;87.45;101994.81;5077230;28;19952;-70
2023/05/24 06:20:52;;;;;;;;;;;;;;;9.90;87.80;101987.41;5034835;28;20058;-72
2023/05/24 06:23:17;;;;;;;;;;;;;;;9.76;87.82;101997.53;5050299;28;20396;-70
2023/05/24 06:25:43;;;;;;;;;;;;;;;9.87;88.19;101993.22;5069551;28;20604;-72
2023/05/24 06:28:09;;;;;;;;;;;;;;;9.80;88.39;101999.50;5080984;28;19949;-73
2023/05/24 06:30:35;;;;;;;;;;;;;;;9.67;88.36;101993.56;5049041;28;19933;-72
2023/05/24 06:33:01;;;;;;;;;;;;;;;9.68;88.97;102008.56;5044634;28;19943;-74
2023/05/24 06:35:26;;;;;;;;;;;;;;;9.67;89.38;102007.75;5061576;28;20610;-73
2023/05/24 06:37:52;;;;;;;;;;;;;;;9.78;87.76;102016.84;5052397;28;19945;-74
2023/05/24 06:40:17;;;;;;;;;;;;;;;9.80;88.56;102014.72;5051954;28;19933;-74
2023/05/24 06:42:43;;;;;;;;;;;;;;;9.92;87.84;102020.09;5081187;28;20308;-71
2023/05/24 06:45:09;;;;;;;;;;;;;;;9.90;87.93;102014.97;5064276;28;19946;-73
2023/05/24 06:47:34;;;;;;;;;;;;;;;9.91;87.58;102027.31;5061630;28;19949;-73
2023/05/24 06:50:02;;;;;;;;;;;;;;;10.01;87.20;102018.66;5046321;28;19937;-73
2023/05/24 06:52:28;;;;;;;;;;;;;;;10.01;86.62;102029.38;5038072;28;19969;-73
2023/05/24 06:54:53;;;;;;;;;;;;;;;10.08;86.70;102030.88;5043139;28;19967;-72
2023/05/24 06:57:20;;;;;;;;;;;;;;;10.30;86.33;102035.66;5050209;28;20023;-74
2023/05/24 06:59:45;;;;;;;;;;;;;;;10.39;85.93;102044.97;5066909;28;19980;-72
2023/05/24 07:02:11;;;;;;;;;;;;;;;10.45;85.58;102040.53;5078059;28;19930;-73
2023/05/24 07:04:39;;;;;;;;;;;;;;;10.67;86.01;102041.50;5066300;28;19934;-72
2023/05/24 07:07:05;;;;;;;;;;;;;;;10.86;84.56;102053.66;5062037;28;19992;-72
2023/05/24 07:09:31;;;;;;;;;;;;;;;10.94;83.53;102041.75;5078998;28;19958;-74
2023/05/24 07:11:57;;;;;;;;;;;;;;;11.12;83.20;102049.59;5080904;28;19932;-72
2023/05/24 07:14:24;;;;;;;;;;;;;;;11.32;82.09;102056.34;5067134;28;19944;-73
2023/05/24 07:16:50;;;;;;;;;;;;;;;11.58;80.95;102052.19;5050795;28;19963;-75
2023/05/24 07:19:15;;;;;;;;;;;;;;;11.83;79.72;102049.13;5057149;28;20014;-74
2023/05/24 07:21:41;;;;;;;;;;;;;;;11.76;78.58;102047.41;5063344;28;19932;-72
2023/05/24 07:24:07;;;;;;;;;;;;;;;11.80;79.08;102049.63;5065461;28;20039;-72
2023/05/24 07:26:33;;;;;;;;;;;;;;;11.79;78.97;102051.50;5086593;28;19949;-72
2023/05/24 07:28:58;;;;;;;;;;;;;;;11.56;78.96;102044.41;5084835;28;19936;-72
2023/05/24 07:31:25;;;;;;;;;;;;;;;11.54;80.76;102049.22;5082482;28;20441;-72
2023/05/24 07:33:51;;;;;;;;;;;;;;;11.63;80.34;102055.78;5068442;28;19983;-72
2023/05/24 07:36:16;;;;;;;;;;;;;;;12.07;78.93;102039.84;5062992;28;19978;-72
2023/05/24 07:38:42;;;;;;;;;;;;;;;11.92;78.40;102042.28;5026262;28;19950;-72
2023/05/24 07:41:07;;;;;;;;;;;;;;;12.00;77.44;102047.25;5051895;28;20032;-72
2023/05/24 07:43:33;;;;;;;;;;;;;;;11.93;78.14;102049.31;5058659;28;19933;-72
2023/05/24 07:45:59;;;;;;;;;;;;;;;11.98;78.61;102058.22;5060189;28;20479;-72
2023/05/24 07:48:24;;;;;;;;;;;;;;;11.58;78.86;102047.66;5065220;28;19954;-72
2023/05/24 07:50:51;;;;;;;;;;;;;;;11.75;79.25;102047.66;5085061;28;19946;-72
2023/05/24 07:53:17;;;;;;;;;;;;;;;11.58;78.71;102055.69;5049325;28;19969;-71
2023/05/24 07:55:45;;;;;;;;;;;;;;;11.44;79.90;102057.06;5078335;28;20404;-72
2023/05/24 07:58:11;;;;;;;;;;;;;;;11.41;80.56;102058.38;5040657;28;20042;-74
2023/05/24 08:00:40;;;;;;;;;;;;;;;11.27;81.34;102067.00;5050594;28;20028;-72
2023/05/24 08:03:06;;;;;;;;;;;;;;;11.28;81.11;102068.63;5081836;28;20391;-74
2023/05/24 08:05:31;;;;;;;;;;;;;;;11.47;82.25;102075.38;5062484;28;19956;-72
2023/05/24 08:07:57;;;;;;;;;;;;;;;11.36;80.11;102073.56;5050330;28;20065;-72
2023/05/24 08:10:24;;;;;;;;;;;;;;;11.48;81.43;102071.66;5064048;28;20012;-71
2023/05/24 08:12:50;;;;;;;;;;;;;;;11.51;79.24;102071.16;5065223;28;19941;-71
2023/05/24 08:15:15;;;;;;;;;;;;;;;11.50;79.61;102074.88;5051008;28;19935;-71
2023/05/24 08:17:41;;;;;;;;;;;;;;;11.57;80.51;102070.19;5064653;28;19951;-71
2023/05/24 08:20:08;;;;;;;;;;;;;;;11.51;79.15;102067.66;5052463;28;19930;-73
2023/05/24 08:22:34;;;;;;;;;;;;;;;11.53;78.74;102071.75;5065136;28;19989;-72
2023/05/24 08:24:59;;;;;;;;;;;;;;;11.61;77.83;102076.69;5067282;28;19931;-73
2023/05/24 08:27:27;;;;;;;;;;;;;;;11.56;78.12;102076.59;5081435;28;19997;-73
2023/05/24 08:29:53;;;;;;;;;;;;;;;11.66;78.64;102078.66;5067285;28;19958;-73
2023/05/24 08:32:18;;;;;;;;;;;;;;;11.74;78.96;102081.72;5087718;28;19937;-74
2023/05/24 08:34:45;;;;;;;;;;;;;;;11.62;79.08;102080.19;5087159;28;19966;-71
2023/05/24 08:37:10;;;;;;;;;;;;;;;11.67;79.01;102083.78;5070313;28;19952;-72
2023/05/24 08:39:35;;;;;;;;;;;;;;;11.74;79.56;102084.41;5087263;28;20391;-72
2023/05/24 08:42:02;;;;;;;;;;;;;;;11.70;78.62;102085.13;5072706;28;20068;-73
2023/05/24 08:44:28;;;;;;;;;;;;;;;11.85;77.82;102090.78;5063449;28;19934;-72
2023/05/24 08:46:55;;;;;;;;;;;;;;;11.92;77.39;102087.91;5084158;28;20053;-72
2023/05/24 08:49:20;;;;;;;;;;;;;;;11.94;78.16;102102.75;5064855;28;20293;-73
2023/05/24 08:51:46;;;;;;;;;;;;;;;11.94;77.80;102101.94;5045466;28;20484;-74
2023/05/24 08:54:13;;;;;;;;;;;;;;;12.21;77.26;102094.81;5049138;28;19930;-74
2023/05/24 08:56:42;;;;;;;;;;;;;;;12.37;77.02;102103.06;5066454;28;19943;-74
2023/05/24 08:59:07;;;;;;;;;;;;;;;12.27;76.53;102101.06;5064909;28;20380;-73
2023/05/24 09:01:36;;;;;;;;;;;;;;;12.56;75.52;102097.16;5069511;28;19981;-73
2023/05/24 09:04:03;;;;;;;;;;;;;;;12.94;75.35;102097.31;5085348;28;19938;-71
2023/05/24 09:06:28;;;;;;;;;;;;;;;12.82;75.00;102100.97;5067907;28;19952;-74
2023/05/24 09:08:57;;;;;;;;;;;;;;;12.74;75.05;102093.34;5050493;28;19983;-74
2023/05/24 09:11:25;;;;;;;;;;;;;;;12.93;73.61;102103.75;5053663;28;20058;-72
2023/05/24 09:13:52;;;;;;;;;;;;;;;12.95;72.89;102104.34;5087862;28;21219;-71
2023/05/24 09:16:18;;;;;;;;;;;;;;;13.36;74.13;102109.09;5083792;28;19975;-72
2023/05/24 09:18:43;;;;;;;;;;;;;;;13.05;72.04;102112.50;5083298;28;20414;-72
2023/05/24 09:21:10;;;;;;;;;;;;;;;13.27;70.98;102113.28;5069454;28;19978;-73
2023/05/24 09:23:36;;;;;;;;;;;;;;;13.34;70.41;102113.94;5070099;28;19927;-73
2023/05/24 09:26:08;;;;;;;;;;;;;;;13.37;70.83;102109.91;5039045;28;19958;-72
2023/05/24 09:28:34;;;;;;;;;;;;;;;13.97;69.04;102116.88;5068400;28;20381;-73
2023/05/24 09:31:01;;;;;;;;;;;;;;;13.93;68.49;102121.13;5054861;28;19935;-74
2023/05/24 09:33:31;;;;;;;;;;;;;;;13.57;68.59;102117.34;5083742;28;19940;-76
2023/05/24 09:36:01;;;;;;;;;;;;;;;14.17;69.92;102121.56;5085521;28;20040;-75
2023/05/24 09:38:28;;;;;;;;;;;;;;;14.28;67.82;102123.25;5085914;28;19954;-74
2023/05/24 09:41:11;;;;;;;;;;;;;;;14.33;66.82;102125.16;5070081;28;19932;-76
2023/05/24 09:43:46;;;;;;;;;;;;;;;14.78;65.55;102121.91;5049409;28;20387;-72
2023/05/24 09:46:15;;;;;;;;;;;;;;;15.50;65.52;102129.06;5065421;28;19949;-72
2023/05/24 09:48:53;;;;;;;;;;;;;;;14.55;63.79;102117.75;5066636;28;19930;-72
2023/05/24 09:51:20;;;;;;;;;;;;;;;14.91;63.62;102126.81;5068827;28;19939;-72
2023/05/24 09:53:47;;;;;;;;;;;;;;;15.05;63.49;102119.03;5066691;28;19928;-73
2023/05/24 09:56:13;;;;;;;;;;;;;;;15.16;66.47;102123.34;5067861;28;19993;-74
2023/05/24 09:58:38;;;;;;;;;;;;;;;15.16;62.65;102122.56;5044826;28;20028;-75
2023/05/24 10:01:05;;;;;;;;;;;;;;;14.90;64.00;102133.28;5052718;28;19968;-74
2023/05/24 10:03:31;;;;;;;;;;;;;;;15.04;62.47;102125.50;5061501;28;20441;-72
2023/05/24 10:05:57;;;;;;;;;;;;;;;14.91;61.02;102126.81;5046912;28;20393;-74
2023/05/24 10:08:22;;;;;;;;;;;;;;;14.79;60.97;102122.72;5052183;28;19945;-74
2023/05/24 10:10:48;;;;;;;;;;;;;;;15.00;60.70;102124.41;5050555;28;19938;-73
2023/05/24 10:13:15;;;;;;;;;;;;;;;14.75;60.65;102122.44;5043003;28;19930;-73
2023/05/24 10:15:41;;;;;;;;;;;;;;;14.58;63.17;102129.91;5082714;28;20104;-73
2023/05/24 10:18:07;;;;;;;;;;;;;;;14.19;63.82;102130.19;5056362;28;20089;-73
2023/05/24 10:20:34;;;;;;;;;;;;;;;14.12;69.23;102132.31;5061423;28;19931;-74
2023/05/24 10:23:00;;;;;;;;;;;;;;;14.05;65.05;102129.03;5057577;28;19982;-74
2023/05/24 10:25:27;;;;;;;;;;;;;;;14.61;64.95;102127.50;5082205;28;20031;-76
2023/05/24 10:27:54;;;;;;;;;;;;;;;14.66;64.24;102134.81;5081390;28;19982;-74
2023/05/24 10:30:32;;;;;;;;;;;;;;;14.51;65.18;102129.34;5051181;28;20317;-74
2023/05/24 10:32:58;;;;;;;;;;;;;;;14.48;64.17;102131.47;5068481;28;20310;-74
2023/05/24 10:35:26;;;;;;;;;;;;;;;14.59;63.53;102132.34;5031718;28;20450;-74
2023/05/24 10:37:53;;;;;;;;;;;;;;;14.87;63.58;102136.50;5062119;28;20056;-76
2023/05/24 10:40:19;;;;;;;;;;;;;;;15.05;62.60;102137.13;5048489;28;19939;-76
2023/05/24 10:42:46;;;;;;;;;;;;;;;14.95;61.25;102143.28;5059872;28;19934;-73
2023/05/24 10:45:30;;;;;;;;;;;;;;;14.77;62.43;102143.72;5031304;28;20687;-73
2023/05/24 10:47:56;;;;;;;;;;;;;;;14.96;61.44;102136.78;5062431;28;20042;-73
2023/05/24 10:50:21;;;;;;;;;;;;;;;14.85;60.84;102135.97;5049097;28;20897;-74
2023/05/24 10:52:47;;;;;;;;;;;;;;;15.42;62.14;102131.50;5066299;28;19935;-74
2023/05/24 10:55:13;;;;;;;;;;;;;;;15.66;58.00;102137.25;5045824;28;19932;-75
2023/05/24 10:57:39;;;;;;;;;;;;;;;16.61;59.06;102140.06;5063797;28;19967;-71
2023/05/24 11:00:19;;;;;;;;;;;;;;;15.95;57.35;102138.31;5080424;28;20394;-74
2023/05/24 11:02:48;;;;;;;;;;;;;;;15.77;58.24;102141.53;5063003;28;19936;-75
2023/05/24 11:05:14;;;;;;;;;;;;;;;16.41;57.40;102143.63;5077471;28;20370;-73
2023/05/24 11:07:41;;;;;;;;;;;;;;;16.41;56.55;102143.63;5076131;28;19954;-73
2023/05/24 11:10:14;;;;;;;;;;;;;;;16.64;55.57;102134.09;5035075;28;19933;-73
2023/05/24 11:12:40;;;;;;;;;;;;;;;15.94;56.84;102136.69;5059648;28;20423;-70
2023/05/24 11:15:08;;;;;;;;;;;;;;;16.41;56.68;102138.22;5064454;28;19934;-73
2023/05/24 11:17:53;;;;;;;;;;;;;;;15.99;59.56;102125.88;5059620;28;20842;-72
2023/05/24 11:20:19;;;;;;;;;;;;;;;15.60;57.57;102122.91;5066581;28;19930;-73
2023/05/24 11:22:44;;;;;;;;;;;;;;;15.71;58.97;102131.81;5065285;28;20539;-73
2023/05/24 11:25:11;;;;;;;;;;;;;;;15.34;57.72;102127.44;5050650;28;20387;-73
2023/05/24 11:27:44;;;;;;;;;;;;;;;15.36;60.01;102129.88;5066156;28;19945;-73
2023/05/24 11:30:11;;;;;;;;;;;;;;;15.35;61.65;102129.06;5051716;28;19941;-74
2023/05/24 11:32:41;;;;;;;;;;;;;;;14.92;59.32;102125.75;5065606;28;19932;-71
2023/05/24 11:35:10;;;;;;;;;;;;;;;15.00;59.55;102124.41;5065590;28;20041;-72
2023/05/24 11:37:37;;;;;;;;;;;;;;;14.92;60.94;102138.41;5065402;28;20040;-74
2023/05/24 11:40:04;;;;;;;;;;;;;;;14.90;62.04;102136.00;5085602;28;19969;-70
2023/05/24 11:42:29;;;;;;;;;;;;;;;14.65;60.85;102133.19;5085022;28;19963;-72
2023/05/24 11:44:55;;;;;;;;;;;;;;;14.45;61.58;102141.94;5076429;28;19963;-74
2023/05/24 11:47:21;;;;;;;;;;;;;;;14.30;64.48;102141.88;5084322;28;20488;-71
2023/05/24 11:49:50;;;;;;;;;;;;;;;14.25;64.22;102134.56;5053124;28;20012;-72
2023/05/24 11:52:16;;;;;;;;;;;;;;;14.18;66.34;102140.16;5085208;28;19937;-72
2023/05/24 11:54:43;;;;;;;;;;;;;;;14.34;69.20;102142.94;5069271;28;19989;-72
2023/05/24 11:57:12;;;;;;;;;;;;;;;14.63;64.27;102138.84;5036820;28;19952;-70
2023/05/24 11:59:40;;;;;;;;;;;;;;;14.81;63.89;102142.13;5068984;28;19932;-73
2023/05/24 12:02:06;;;;;;;;;;;;;;;15.13;63.16;102144.69;5069115;28;20050;-72
2023/05/24 12:04:33;;;;;;;;;;;;;;;15.49;63.71;102148.25;5048130;28;19986;-73
2023/05/24 12:06:59;;;;;;;;;;;;;;;15.86;60.64;102149.94;5085763;28;19942;-73
2023/05/24 12:09:24;;;;;;;;;;;;;;;15.93;60.46;102153.19;5054131;28;19940;-72
2023/05/24 12:11:50;;;;;;;;;;;;;;;16.27;62.49;102164.22;5070467;28;19971;-72
2023/05/24 12:14:17;;;;;;;;;;;;;;;15.78;59.33;102157.50;5053155;28;19932;-71
2023/05/24 12:16:44;;;;;;;;;;;;;;;15.76;60.67;102162.34;5084107;28;19948;-72
2023/05/24 12:19:19;;;;;;;;;;;;;;;15.62;59.74;102169.34;5055720;28;19936;-72
2023/05/24 12:21:48;;;;;;;;;;;;;;;15.90;61.37;102165.31;5084754;28;19935;-71
2023/05/24 12:24:15;;;;;;;;;;;;;;;15.88;62.34;102170.19;5065098;28;19936;-71
2023/05/24 12:26:46;;;;;;;;;;;;;;;15.37;63.62;102166.59;5069747;28;20002;-71
2023/05/24 12:29:11;;;;;;;;;;;;;;;14.88;65.10;102167.78;5065238;28;19980;-73
2023/05/24 12:31:41;;;;;;;;;;;;;;;14.99;67.99;102166.75;5081710;28;19936;-74
2023/05/24 12:34:10;;;;;;;;;;;;;;;14.70;70.94;102170.97;5072407;28;19985;-75
2023/05/24 12:36:37;;;;;;;;;;;;;;;14.62;71.13;102174.13;5051046;28;20445;-72
2023/05/24 12:39:16;;;;;;;;;;;;;;;14.56;66.81;102172.47;5054447;28;20022;-71
2023/05/24 12:41:42;;;;;;;;;;;;;;;14.63;66.28;102176.59;5050588;28;20490;-72